Time;durP1;ratioP1;P1;durP2;ratioP2;P2;SDS_P1;SDS_P2;PMS_P1;PMS_P2;Temp;Humidity;BMP_temperature;BMP_pressure;BME280_temperature;BME280_humidity;BME280_pressure;Samples;Min_cycle;Max_cycle;Signal;HPM_P1;HPM_P2
2022/08/11 00:01:26;;;;;;;6.63;3.70;;;19.90;99.90;;;;;;5039480;28;20046;-64
2022/08/11 00:04:00;;;;;;;5.95;3.33;;;19.90;99.90;;;;;;5039630;28;20366;-64
2022/08/11 00:06:32;;;;;;;5.15;3.17;;;19.90;99.90;;;;;;5047270;28;20064;-64
2022/08/11 00:08:59;;;;;;;5.40;3.70;;;19.80;99.90;;;;;;5036206;28;20037;-64
2022/08/11 00:11:37;;;;;;;5.88;3.65;;;19.70;99.90;;;;;;5046233;28;20045;-64
2022/08/11 00:14:11;;;;;;;5.93;3.50;;;19.70;99.90;;;;;;5046247;28;20152;-64
2022/08/11 00:16:38;;;;;;;5.78;3.50;;;19.70;99.90;;;;;;5047536;28;20059;-64
2022/08/11 00:19:04;;;;;;;5.53;3.17;;;19.70;99.90;;;;;;5036014;28;20120;-64
2022/08/11 00:21:30;;;;;;;6.07;3.67;;;19.70;99.90;;;;;;5043950;28;20043;-64
2022/08/11 00:24:02;;;;;;;5.20;3.63;;;19.60;99.90;;;;;;5038292;28;20036;-64
2022/08/11 00:26:29;;;;;;;6.95;3.80;;;19.60;99.90;;;;;;5046260;28;20084;-64
2022/08/11 00:28:55;;;;;;;5.72;3.88;;;19.60;99.90;;;;;;5028071;28;20039;-64
2022/08/11 00:31:26;;;;;;;6.88;4.18;;;19.60;99.90;;;;;;5038170;28;20440;-64
2022/08/11 00:33:52;;;;;;;6.13;3.80;;;19.50;99.90;;;;;;5033192;28;20461;-64
2022/08/11 00:36:22;;;;;;;6.38;4.10;;;19.50;99.90;;;;;;5042618;28;20055;-64
2022/08/11 00:38:51;;;;;;;8.25;4.15;;;19.50;99.90;;;;;;5040929;28;20498;-64
2022/08/11 00:41:41;;;;;;;5.55;3.70;;;19.50;99.90;;;;;;5041530;28;20048;-64
2022/08/11 00:44:27;;;;;;;6.10;4.30;;;19.50;99.90;;;;;;5041532;28;20032;-64
2022/08/11 00:47:22;;;;;;;5.80;3.90;;;19.40;99.90;;;;;;5046730;28;20045;-64
2022/08/11 00:50:18;;;;;;;5.53;3.42;;;19.40;99.90;;;;;;5029592;28;20055;-64
2022/08/11 00:53:09;;;;;;;6.35;4.10;;;19.30;99.90;;;;;;5039382;28;20041;-64
2022/08/11 00:55:53;;;;;;;6.18;3.70;;;19.20;99.90;;;;;;5043524;28;20051;-64
2022/08/11 00:58:24;;;;;;;8.47;4.03;;;19.20;99.90;;;;;;5042236;28;20041;-64
2022/08/11 01:01:05;;;;;;;6.47;4.00;;;19.20;99.90;;;;;;5036054;28;20299;-64
2022/08/11 01:03:40;;;;;;;7.40;4.28;;;19.20;99.90;;;;;;5037762;28;20047;-64
2022/08/11 01:06:31;;;;;;;6.10;3.90;;;19.20;99.90;;;;;;5044049;28;20174;-64
2022/08/11 01:09:00;;;;;;;6.18;4.00;;;19.10;99.90;;;;;;5041026;28;20059;-64
2022/08/11 01:12:04;;;;;;;7.85;4.65;;;19.10;99.90;;;;;;5043956;28;20430;-64
2022/08/11 01:15:18;;;;;;;6.97;4.20;;;19.10;99.90;;;;;;5021256;28;20515;-64
2022/08/11 01:18:02;;;;;;;6.95;4.55;;;19.00;99.90;;;;;;5016986;28;20088;-64
2022/08/11 01:20:46;;;;;;;11.38;4.63;;;19.00;99.90;;;;;;5037578;28;20048;-64
2022/08/11 01:23:45;;;;;;;5.80;3.95;;;18.90;99.90;;;;;;5043187;28;20143;-64
2022/08/11 01:26:29;;;;;;;6.93;4.50;;;18.90;99.90;;;;;;5038401;28;20041;-64
2022/08/11 01:29:39;;;;;;;6.70;4.37;;;18.80;99.90;;;;;;5038192;28;20049;-64
2022/08/11 01:32:39;;;;;;;5.55;3.90;;;18.80;99.90;;;;;;5038893;28;20124;-64
2022/08/11 01:35:20;;;;;;;6.25;4.25;;;18.80;99.90;;;;;;5041625;28;20106;-64
2022/08/11 01:38:28;;;;;;;7.22;4.78;;;18.80;99.90;;;;;;5041056;28;20052;-64
2022/08/11 01:44:36;;;;;;;6.15;4.43;;;18.70;99.90;;;;;;5045676;28;20091;-64
2022/08/11 01:44:42;;;;;;;6.68;4.45;;;18.60;99.90;;;;;;5033535;28;20136;-64
2022/08/11 01:47:51;;;;;;;8.43;5.00;;;18.60;99.90;;;;;;5039742;28;20049;-64
2022/08/11 01:50:16;;;;;;;5.57;4.40;;;18.60;99.90;;;;;;5039446;28;20044;-64
2022/08/11 01:53:02;;;;;;;7.15;4.75;;;18.50;99.90;;;;;;5041183;28;20372;-64
2022/08/11 01:55:48;;;;;;;6.75;4.40;;;18.50;99.90;;;;;;5044904;28;20103;-64
2022/08/11 01:58:25;;;;;;;7.43;4.32;;;18.50;99.90;;;;;;5045501;28;20124;-64
2022/08/11 02:01:09;;;;;;;6.32;4.32;;;18.50;99.90;;;;;;5044921;28;20049;-64
2022/08/11 02:04:03;;;;;;;7.53;4.63;;;18.50;99.90;;;;;;5043926;28;20033;-64
2022/08/11 02:07:01;;;;;;;7.28;4.53;;;18.50;99.90;;;;;;5042335;28;20061;-64
2022/08/11 02:09:51;;;;;;;7.30;4.57;;;18.40;99.90;;;;;;5048039;28;20053;-64
2022/08/11 02:12:16;;;;;;;5.68;4.30;;;18.40;99.90;;;;;;5050284;28;20399;-64
2022/08/11 02:14:56;;;;;;;7.47;4.75;;;18.40;99.90;;;;;;5050200;28;20041;-64
2022/08/11 02:17:47;;;;;;;6.50;4.65;;;18.40;99.90;;;;;;5041061;28;20041;-64
2022/08/11 02:26:07;;;;;;;7.22;4.60;;;18.30;99.90;;;;;;5047208;28;19920;-64
2022/08/11 02:28:51;;;;;;;7.13;4.90;;;18.20;99.90;;;;;;5049373;28;20110;-64
2022/08/11 02:34:28;;;;;;;7.78;5.10;;;18.20;99.90;;;;;;5047535;28;20400;-64
2022/08/11 02:37:14;;;;;;;6.65;4.60;;;18.20;99.90;;;;;;5049770;28;20059;-64
2022/08/11 02:40:02;;;;;;;6.43;4.60;;;18.10;99.90;;;;;;5037907;28;20040;-64
2022/08/11 02:42:32;;;;;;;8.75;4.85;;;18.10;99.90;;;;;;5050375;28;20552;-64
2022/08/11 02:45:04;;;;;;;7.13;4.78;;;18.10;99.90;;;;;;5049744;28;20037;-64
2022/08/11 02:47:41;;;;;;;7.68;5.05;;;18.10;99.90;;;;;;5050286;28;20052;-64
2022/08/11 02:50:24;;;;;;;8.60;5.30;;;18.00;99.90;;;;;;5042779;28;20049;-64
2022/08/11 02:53:08;;;;;;;8.02;5.20;;;18.00;99.90;;;;;;5036915;28;20036;-64
2022/08/11 02:55:37;;;;;;;8.02;5.07;;;18.00;99.90;;;;;;5052160;28;20041;-64
2022/08/11 02:58:16;;;;;;;9.15;5.30;;;17.90;99.90;;;;;;5049884;28;20463;-64
2022/08/11 03:01:05;;;;;;;8.30;5.05;;;17.80;99.90;;;;;;5039789;28;20441;-64
2022/08/11 03:03:45;;;;;;;7.18;4.90;;;17.90;99.90;;;;;;5038431;28;20037;-64
2022/08/11 03:06:35;;;;;;;7.68;5.50;;;17.90;99.90;;;;;;5045027;28;20709;-63
2022/08/11 03:09:26;;;;;;;7.75;5.28;;;17.80;99.90;;;;;;5031527;28;20116;-63
2022/08/11 03:18:09;;;;;;;6.80;5.20;;;17.80;99.90;;;;;;5050028;28;20119;-64
2022/08/11 03:21:05;;;;;;;7.50;4.97;;;17.70;99.90;;;;;;5038832;28;20067;-63
2022/08/11 03:23:52;;;;;;;8.68;5.88;;;17.70;99.90;;;;;;5049058;28;20139;-63
2022/08/11 03:26:55;;;;;;;6.78;5.30;;;17.70;99.90;;;;;;5031225;28;20064;-63
2022/08/11 03:29:36;;;;;;;7.85;5.55;;;17.60;99.90;;;;;;5053597;28;20048;-63
2022/08/11 03:32:10;;;;;;;8.70;5.22;;;17.60;99.90;;;;;;5046257;28;20119;-63
2022/08/11 03:34:40;;;;;;;8.45;5.28;;;17.60;99.90;;;;;;5045504;28;20119;-63
2022/08/11 03:41:41;;;;;;;7.35;5.15;;;17.50;99.90;;;;;;5044240;28;20071;-64
2022/08/11 03:43:32;;;;;;;8.35;5.60;;;17.50;99.90;;;;;;5044720;28;20121;-64
2022/08/11 03:46:04;;;;;;;;;;;17.50;99.90;;;;;;5028083;28;20115;-63
2022/08/11 03:48:59;;;;;;;9.00;5.88;;;17.40;99.90;;;;;;5040717;28;19921;-63
2022/08/11 03:52:00;;;;;;;9.43;5.68;;;17.40;99.90;;;;;;5031661;28;20060;-63
2022/08/11 03:54:59;;;;;;;12.50;6.15;;;17.40;99.90;;;;;;5043910;28;20036;-63
2022/08/11 03:58:09;;;;;;;9.80;5.82;;;17.40;99.90;;;;;;5060323;28;20579;-63
2022/08/11 04:00:43;;;;;;;9.13;6.00;;;17.40;99.90;;;;;;5040766;28;20480;-63
2022/08/11 04:03:51;;;;;;;9.32;5.43;;;17.40;99.90;;;;;;5038572;28;20037;-63
2022/08/11 04:06:49;;;;;;;9.50;5.63;;;17.40;99.90;;;;;;5023330;28;20044;-63
2022/08/11 04:09:46;;;;;;;8.43;5.85;;;17.30;99.90;;;;;;5046208;28;20041;-63
2022/08/11 04:12:50;;;;;;;7.45;5.43;;;17.30;99.90;;;;;;5037664;28;20044;-63
2022/08/11 04:15:59;;;;;;;8.15;5.88;;;17.20;99.90;;;;;;5042891;28;20087;-63
2022/08/11 04:18:58;;;;;;;8.68;5.82;;;17.20;99.90;;;;;;5041419;28;20071;-63
2022/08/11 04:21:48;;;;;;;9.13;5.97;;;17.20;99.90;;;;;;5033428;28;20057;-63
2022/08/11 04:24:53;;;;;;;8.75;6.25;;;17.20;99.90;;;;;;5039669;28;20068;-63
2022/08/11 04:27:51;;;;;;;9.63;6.07;;;17.20;99.90;;;;;;5044243;28;20442;-64
2022/08/11 04:30:57;;;;;;;7.53;5.60;;;17.20;99.90;;;;;;5040653;28;20196;-63
2022/08/11 04:33:41;;;;;;;8.13;5.72;;;17.10;99.90;;;;;;5028083;28;20049;-64
2022/08/11 04:37:31;;;;;;;9.93;6.57;;;17.20;99.90;;;;;;5041299;28;20128;-64
2022/08/11 04:39:26;;;;;;;8.38;6.53;;;17.10;99.90;;;;;;5043649;28;20041;-63
2022/08/11 04:45:27;;;;;;;11.50;7.80;;;17.20;99.90;;;;;;5043376;28;20088;-64
2022/08/11 05:03:45;;;;;;;8.95;6.53;;;17.20;99.90;;;;;;5035772;28;20104;-64
2022/08/11 05:06:47;;;;;;;9.07;6.45;;;17.30;99.90;;;;;;5030522;28;20164;-63
2022/08/11 05:09:45;;;;;;;10.50;7.10;;;17.30;99.90;;;;;;5033744;28;20038;-63
2022/08/11 05:12:28;;;;;;;7.75;6.18;;;17.30;99.90;;;;;;5026783;28;20041;-63
2022/08/11 05:35:08;;;;;;;11.23;6.85;;;18.20;99.90;;;;;;5045150;28;20048;-64
2022/08/11 05:57:26;;;;;;;12.32;7.45;;;19.00;99.90;;;;;;5050659;28;20049;-64
2022/08/11 06:00:03;;;;;;;12.52;6.90;;;19.00;99.90;;;;;;5053808;28;20412;-64
2022/08/11 06:02:29;;;;;;;10.90;7.32;;;19.10;99.90;;;;;;5040932;28;20041;-65
2022/08/11 06:04:57;;;;;;;11.35;7.50;;;19.20;99.90;;;;;;5038168;28;20056;-65
2022/08/11 06:07:28;;;;;;;9.52;6.90;;;19.30;99.90;;;;;;5029700;28;20057;-65
2022/08/11 06:09:55;;;;;;;11.45;7.30;;;19.40;99.90;;;;;;5029027;28;20100;-65
2022/08/11 06:12:30;;;;;;;8.27;6.20;;;19.60;99.90;;;;;;5031794;28;20049;-65
2022/08/11 06:15:00;;;;;;;9.15;6.40;;;19.70;99.90;;;;;;5036670;28;20505;-65
2022/08/11 06:17:29;;;;;;;9.45;6.40;;;19.80;99.90;;;;;;5030275;28;20652;-66
2022/08/11 06:20:05;;;;;;;10.25;7.05;;;19.90;99.90;;;;;;5029295;28;20044;-65
2022/08/11 06:22:32;;;;;;;8.82;6.03;;;20.00;99.90;;;;;;5030332;28;20049;-66
2022/08/11 06:25:00;;;;;;;10.07;6.32;;;20.10;99.90;;;;;;5029364;28;20451;-65
2022/08/11 06:27:30;;;;;;;8.55;6.25;;;20.20;99.90;;;;;;5031735;28;20053;-66
2022/08/11 06:29:57;;;;;;;8.48;6.25;;;20.20;99.90;;;;;;5029495;28;20481;-66
2022/08/11 06:32:31;;;;;;;9.00;6.53;;;20.40;99.90;;;;;;5030929;28;20148;-66
2022/08/11 06:35:38;;;;;;;8.63;5.97;;;20.40;99.90;;;;;;5027574;28;20497;-66
2022/08/11 06:38:09;;;;;;;9.85;6.85;;;20.50;99.90;;;;;;5023693;28;20054;-66
2022/08/11 06:44:10;;;;;;;9.20;6.80;;;20.70;99.90;;;;;;5049989;28;20717;-66
2022/08/11 06:46:50;;;;;;;9.95;6.50;;;20.70;99.90;;;;;;5050284;28;20037;-66
2022/08/11 06:52:05;;;;;;;9.63;6.28;;;20.90;99.90;;;;;;5031009;28;20469;-66
2022/08/11 06:54:35;;;;;;;9.48;6.40;;;21.00;99.90;;;;;;5047422;28;20116;-66
2022/08/11 07:02:45;;;;;;;9.23;6.10;;;21.40;99.90;;;;;;5050605;28;20049;-66
2022/08/11 07:05:27;;;;;;;9.82;5.82;;;21.50;99.90;;;;;;5046476;28;20127;-66
2022/08/11 07:17:21;;;;;;;7.40;4.63;;;21.90;99.90;;;;;;5050190;28;20228;-67
2022/08/11 07:31:06;;;;;;;7.30;5.03;;;22.40;99.90;;;;;;5048359;28;20052;-67
2022/08/11 07:33:56;;;;;;;6.18;4.13;;;22.50;99.90;;;;;;5048803;28;20041;-67
2022/08/11 07:36:26;;;;;;;6.93;4.45;;;22.70;99.90;;;;;;5047875;28;20452;-67
2022/08/11 07:38:55;;;;;;;7.95;4.63;;;22.70;99.90;;;;;;5034622;28;20045;-67
2022/08/11 07:41:23;;;;;;;10.25;4.13;;;22.90;99.90;;;;;;5047767;28;20049;-67
2022/08/11 07:43:52;;;;;;;6.05;3.75;;;23.00;99.90;;;;;;5049238;28;20056;-67
2022/08/11 07:54:40;;;;;;;5.93;3.03;;;23.60;99.90;;;;;;5046937;28;20375;-67
2022/08/11 08:19:16;;;;;;;6.75;2.22;;;24.60;97.40;;;;;;5047113;28;20500;-67
2022/08/11 08:21:43;;;;;;;8.70;2.30;;;24.70;97.70;;;;;;5047931;28;20415;-66
2022/08/11 08:24:09;;;;;;;4.47;2.20;;;24.80;96.90;;;;;;5045507;28;20052;-67
2022/08/11 08:32:12;;;;;;;4.30;2.30;;;25.00;95.30;;;;;;5047725;28;20085;-66
2022/08/11 08:34:39;;;;;;;4.28;2.13;;;25.10;94.60;;;;;;5046553;28;20349;-67
2022/08/11 08:37:06;;;;;;;4.63;2.33;;;25.10;94.30;;;;;;5045975;28;20067;-66
2022/08/11 08:39:33;;;;;;;4.20;1.80;;;25.20;94.00;;;;;;5034473;28;20518;-66
2022/08/11 08:42:05;;;;;;;4.32;1.80;;;25.30;93.50;;;;;;5048025;28;20048;-67
2022/08/11 08:44:34;;;;;;;3.70;1.70;;;25.30;93.40;;;;;;5048033;28;20068;-67
2022/08/11 08:47:04;;;;;;;3.58;1.52;;;25.40;92.80;;;;;;5047803;28;20075;-67
2022/08/11 08:49:37;;;;;;;5.28;1.70;;;25.50;92.30;;;;;;5044934;28;20052;-67
2022/08/11 08:52:05;;;;;;;3.40;1.67;;;25.60;92.10;;;;;;5046332;28;20412;-67
2022/08/11 08:54:36;;;;;;;3.58;1.60;;;25.70;92.50;;;;;;5047624;28;20087;-67
2022/08/11 08:57:05;;;;;;;5.00;1.70;;;25.80;92.00;;;;;;5048137;28;20041;-67
2022/08/11 08:59:32;;;;;;;3.95;1.75;;;25.90;91.30;;;;;;5045827;28;20044;-67
2022/08/11 09:02:03;;;;;;;7.35;1.88;;;26.00;91.30;;;;;;5047722;28;20045;-67
2022/08/11 09:04:30;;;;;;;3.55;1.60;;;26.10;90.60;;;;;;5043131;28;20183;-67
2022/08/11 09:07:02;;;;;;;3.53;1.58;;;26.20;90.30;;;;;;5046438;28;20057;-67
2022/08/11 09:09:28;;;;;;;5.40;1.60;;;26.20;88.60;;;;;;5044227;28;20388;-66
2022/08/11 09:11:55;;;;;;;4.63;1.70;;;26.30;89.00;;;;;;5047475;28;20064;-67
2022/08/11 09:14:59;;;;;;;3.40;1.50;;;26.30;86.00;;;;;;5047206;28;20055;-67
2022/08/11 09:17:16;;;;;;;3.05;1.30;;;26.40;85.40;;;;;;5044935;28;20048;-67
2022/08/11 09:19:42;;;;;;;3.00;1.25;;;26.50;84.80;;;;;;5049967;28;20088;-67
2022/08/11 09:27:38;;;;;;;4.35;1.58;;;26.80;82.50;;;;;;5044295;28;20330;-67
2022/08/11 09:30:05;;;;;;;2.28;1.20;;;26.90;83.20;;;;;;5053915;28;20121;-67
2022/08/11 09:32:32;;;;;;;4.75;1.30;;;27.00;79.80;;;;;;5053272;28;20045;-67
2022/08/11 09:35:00;;;;;;;3.80;1.15;;;27.00;77.90;;;;;;5052076;28;20056;-66
2022/08/11 09:40:29;;;;;;;3.30;1.40;;;27.10;76.40;;;;;;5044535;28;20468;-67
2022/08/11 09:45:54;;;;;;;2.45;1.17;;;27.30;74.40;;;;;;5050967;28;20056;-66
2022/08/11 09:48:22;;;;;;;2.42;1.20;;;27.50;75.50;;;;;;5053221;28;20076;-66
2022/08/11 09:50:51;;;;;;;4.72;1.70;;;27.50;73.70;;;;;;5049004;28;20408;-66
2022/08/11 09:53:19;;;;;;;4.68;1.30;;;27.60;72.10;;;;;;5053409;28;20136;-66
2022/08/11 09:55:45;;;;;;;6.57;1.40;;;27.70;72.50;;;;;;5050961;28;20045;-67
2022/08/11 09:58:18;;;;;;;4.97;1.60;;;27.80;73.50;;;;;;5052048;28;20041;-66
2022/08/11 10:00:49;;;;;;;3.58;1.42;;;27.80;71.30;;;;;;5053616;28;20052;-66
2022/08/11 10:03:22;;;;;;;4.65;1.98;;;27.80;68.00;;;;;;5050479;28;20969;-66
2022/08/11 10:08:39;;;;;;;5.72;2.00;;;27.90;68.40;;;;;;5053224;28;20103;-67
2022/08/11 10:11:08;;;;;;;3.17;1.70;;;27.90;67.40;;;;;;5051883;28;20079;-67
2022/08/11 10:15:32;;;;;;;4.38;1.75;;;28.00;64.70;;;;;;5054220;28;20048;-67
2022/08/11 10:16:25;;;;;;;3.40;1.60;;;28.00;66.30;;;;;;5052940;28;20088;-67
2022/08/11 10:18:51;;;;;;;5.25;2.00;;;28.10;67.80;;;;;;5052557;28;20128;-67
2022/08/11 10:21:33;;;;;;;3.42;1.63;;;28.20;67.80;;;;;;5047668;28;20037;-67
2022/08/11 10:26:55;;;;;;;4.15;1.60;;;28.40;67.10;;;;;;5054384;28;20059;-66
2022/08/11 10:35:06;;;;;;;5.40;1.60;;;28.50;65.70;;;;;;5049191;28;20084;-67
2022/08/11 10:37:35;;;;;;;4.57;1.80;;;28.50;64.70;;;;;;5042754;28;20088;-66
2022/08/11 10:40:03;;;;;;;5.65;2.08;;;28.60;63.70;;;;;;5040564;28;20353;-66
2022/08/11 10:48:00;;;;;;;3.90;1.60;;;28.70;63.30;;;;;;5049608;28;20565;-67
2022/08/11 10:58:49;;;;;;;2.95;1.60;;;28.90;62.90;;;;;;5033557;28;20119;-65
2022/08/11 11:01:32;;;;;;;4.85;1.83;;;28.90;62.60;;;;;;5050313;28;20041;-64
2022/08/11 11:04:06;;;;;;;3.50;1.75;;;29.00;63.30;;;;;;5048739;28;20179;-64
2022/08/11 11:06:43;;;;;;;2.67;1.60;;;29.00;62.40;;;;;;5048727;28;20080;-64
2022/08/11 11:09:31;;;;;;;4.80;1.80;;;29.10;62.40;;;;;;5049211;28;20154;-65
2022/08/11 11:18:00;;;;;;;3.67;1.70;;;29.30;63.10;;;;;;5041743;28;20057;-66
2022/08/11 11:20:26;;;;;;;3.53;1.40;;;29.30;61.60;;;;;;5030194;28;20092;-66
2022/08/11 11:22:56;;;;;;;3.45;1.40;;;29.30;60.70;;;;;;5031348;28;20073;-65
2022/08/11 11:26:06;;;;;;;4.35;1.67;;;29.40;61.00;;;;;;5045455;28;20130;-65
2022/08/11 11:29:15;;;;;;;3.38;1.70;;;29.40;61.20;;;;;;5047805;28;20060;-65
2022/08/11 11:31:52;;;;;;;5.25;1.80;;;29.50;62.70;;;;;;5029856;28;20053;-65
2022/08/11 11:34:36;;;;;;;3.40;1.48;;;29.60;61.80;;;;;;5029271;28;20048;-65
2022/08/11 11:37:03;;;;;;;4.72;1.90;;;29.60;58.60;;;;;;5041409;28;20080;-65
2022/08/11 11:39:31;;;;;;;3.17;1.50;;;29.60;60.80;;;;;;5034316;28;20037;-65
2022/08/11 11:42:00;;;;;;;3.97;1.50;;;29.70;60.30;;;;;;5048883;28;20120;-65
2022/08/11 11:44:27;;;;;;;3.83;1.50;;;29.60;59.30;;;;;;5045022;28;20029;-65
2022/08/11 11:46:54;;;;;;;4.25;1.58;;;29.70;60.00;;;;;;5049171;28;20040;-65
2022/08/11 11:49:23;;;;;;;2.13;1.42;;;29.80;59.10;;;;;;5041227;28;20499;-65
2022/08/11 11:51:53;;;;;;;4.80;1.80;;;29.70;58.50;;;;;;5048725;28;20406;-65
2022/08/11 11:54:28;;;;;;;3.85;1.35;;;29.70;58.00;;;;;;5045798;28;20060;-65
2022/08/11 11:56:56;;;;;;;3.42;1.33;;;29.70;58.60;;;;;;5047726;28;20088;-65
2022/08/11 12:02:11;;;;;;;2.45;1.35;;;29.80;56.60;;;;;;5047980;28;20049;-65
2022/08/11 12:04:41;;;;;;;3.30;1.45;;;29.90;57.20;;;;;;5046481;28;20045;-65
2022/08/11 12:09:54;;;;;;;3.60;1.40;;;29.90;56.70;;;;;;5047472;28;20056;-65
2022/08/11 12:15:07;;;;;;;4.45;1.27;;;30.00;56.60;;;;;;5047812;28;20037;-65
2022/08/11 12:17:35;;;;;;;3.05;1.23;;;30.00;56.00;;;;;;5048293;28;20044;-65
2022/08/11 12:20:01;;;;;;;3.60;1.30;;;30.10;57.80;;;;;;5044537;28;20139;-65
2022/08/11 12:28:07;;;;;;;2.72;1.20;;;30.20;55.30;;;;;;5045281;28;20091;-65
2022/08/11 12:30:32;;;;;;;3.75;1.30;;;30.20;55.60;;;;;;5032864;28;20459;-65
2022/08/11 12:32:58;;;;;;;3.58;1.35;;;30.20;54.80;;;;;;5047776;28;20483;-65
2022/08/11 12:35:24;;;;;;;6.13;1.50;;;30.30;55.20;;;;;;5037180;28;20040;-65
2022/08/11 12:38:00;;;;;;;3.20;1.40;;;30.40;55.50;;;;;;5047628;28;20133;-65
2022/08/11 12:46:04;;;;;;;3.03;1.30;;;30.50;54.70;;;;;;5046241;28;20049;-65
2022/08/11 12:54:30;;;;;;;2.63;1.40;;;30.60;53.40;;;;;;5041822;28;20057;-65
2022/08/11 13:05:24;;;;;;;4.22;1.38;;;30.80;53.70;;;;;;5046291;28;20198;-65
2022/08/11 13:07:51;;;;;;;4.07;1.35;;;30.90;53.70;;;;;;5047593;28;20044;-65
2022/08/11 13:13:06;;;;;;;4.55;1.30;;;30.90;52.60;;;;;;5036033;28;20250;-65
2022/08/11 13:15:32;;;;;;;3.92;1.50;;;30.90;53.20;;;;;;5048435;28;20109;-66
2022/08/11 13:17:59;;;;;;;2.90;1.40;;;31.00;53.30;;;;;;5047574;28;20451;-66
2022/08/11 13:20:26;;;;;;;4.00;1.45;;;31.00;52.00;;;;;;5048173;28;20391;-65
2022/08/11 13:22:54;;;;;;;3.47;1.30;;;31.00;51.40;;;;;;5046262;28;20045;-65
2022/08/11 13:25:23;;;;;;;3.85;1.40;;;31.00;51.70;;;;;;5046862;28;20116;-65
2022/08/11 13:27:50;;;;;;;3.38;1.50;;;31.10;52.70;;;;;;5047713;28;20076;-65
2022/08/11 13:33:03;;;;;;;5.05;1.40;;;31.20;52.10;;;;;;5043085;28;20132;-66
2022/08/11 13:35:33;;;;;;;3.15;1.50;;;31.10;50.50;;;;;;5039426;28;20044;-65
2022/08/11 13:38:02;;;;;;;3.83;1.40;;;31.10;50.10;;;;;;5038679;28;20138;-65
2022/08/11 13:40:29;;;;;;;8.55;1.48;;;31.10;50.50;;;;;;5041759;28;20044;-66
2022/08/11 13:42:57;;;;;;;2.58;1.35;;;31.10;51.20;;;;;;5046035;28;20345;-65
2022/08/11 13:45:24;;;;;;;3.33;1.55;;;31.20;52.00;;;;;;5046043;28;20049;-63
2022/08/11 13:47:54;;;;;;;3.33;1.60;;;31.30;51.80;;;;;;5046769;28;20041;-65
2022/08/11 13:50:20;;;;;;;4.05;1.40;;;31.30;50.70;;;;;;5045671;28;20064;-65
2022/08/11 13:52:48;;;;;;;1.75;1.15;;;31.40;51.60;;;;;;5047724;28;20183;-65
2022/08/11 13:55:20;;;;;;;2.42;1.17;;;31.40;51.90;;;;;;5045824;28;20095;-65
2022/08/11 13:57:52;;;;;;;3.90;1.25;;;31.40;51.10;;;;;;5045168;28;20371;-65
2022/08/11 14:00:18;;;;;;;2.22;1.30;;;31.50;51.00;;;;;;5045501;28;20116;-65
2022/08/11 14:02:47;;;;;;;5.43;1.50;;;31.60;51.80;;;;;;5045878;28;20119;-65
2022/08/11 14:05:18;;;;;;;4.20;1.50;;;31.50;50.80;;;;;;5049230;28;20330;-65
2022/08/11 14:07:51;;;;;;;2.40;1.20;;;31.50;51.80;;;;;;5049416;28;20107;-63
2022/08/11 14:10:20;;;;;;;4.97;1.40;;;31.60;51.80;;;;;;5050334;28;20128;-65
2022/08/11 14:16:03;;;;;;;3.33;1.40;;;31.60;50.70;;;;;;5049887;28;20064;-65
2022/08/11 14:18:30;;;;;;;2.95;1.40;;;31.60;51.40;;;;;;5042293;28;20452;-66
2022/08/11 14:23:49;;;;;;;3.08;1.30;;;31.60;50.90;;;;;;5050237;28;20458;-65
2022/08/11 14:26:22;;;;;;;2.65;1.13;;;31.70;51.10;;;;;;5050087;28;20065;-65
2022/08/11 14:28:52;;;;;;;3.60;1.17;;;31.60;50.30;;;;;;5036516;28;20153;-65
2022/08/11 14:31:18;;;;;;;2.25;1.20;;;31.60;51.30;;;;;;5049382;28;20131;-65
2022/08/11 14:33:45;;;;;;;2.42;1.20;;;31.60;50.30;;;;;;5049809;28;20056;-65
2022/08/11 14:36:13;;;;;;;2.92;1.27;;;31.50;50.20;;;;;;5048446;28;20069;-65
2022/08/11 14:38:40;;;;;;;5.18;1.30;;;31.50;50.80;;;;;;5036675;28;20086;-65
2022/08/11 14:49:26;;;;;;;3.05;1.15;;;31.50;50.40;;;;;;5049004;28;20163;-65
2022/08/11 14:51:53;;;;;;;2.97;1.30;;;31.50;50.10;;;;;;5031836;28;20135;-65
2022/08/11 14:57:08;;;;;;;8.38;1.40;;;31.60;49.90;;;;;;5048939;28;20420;-65
2022/08/11 14:59:35;;;;;;;1.80;1.10;;;31.60;49.50;;;;;;5048176;28;20160;-65
2022/08/11 15:04:49;;;;;;;4.50;1.33;;;31.60;49.70;;;;;;5036375;28;20069;-65
2022/08/11 15:07:15;;;;;;;3.88;1.40;;;31.70;50.20;;;;;;5046765;28;20053;-65
2022/08/11 15:09:43;;;;;;;1.88;1.10;;;31.70;49.30;;;;;;5049632;28;20059;-65
2022/08/11 15:12:17;;;;;;;4.55;1.48;;;31.70;49.00;;;;;;5049012;28;20464;-65
2022/08/11 15:17:34;;;;;;;4.45;1.20;;;31.80;49.10;;;;;;5049833;28;20045;-65
2022/08/11 15:25:36;;;;;;;2.83;1.27;;;31.80;49.40;;;;;;5044302;28;20068;-65
2022/08/11 15:39:20;;;;;;;2.58;1.20;;;31.80;48.60;;;;;;5040197;28;20499;-65
2022/08/11 15:47:56;;;;;;;5.22;1.40;;;31.80;49.20;;;;;;5047577;28;20425;-65
2022/08/11 15:50:27;;;;;;;3.05;1.50;;;31.70;49.90;;;;;;5048694;28;20045;-65
2022/08/11 15:52:58;;;;;;;4.03;1.30;;;31.60;49.90;;;;;;5048318;28;20068;-65
2022/08/11 15:55:24;;;;;;;3.97;1.33;;;31.60;49.50;;;;;;5048774;28;20084;-65
2022/08/11 16:06:12;;;;;;;3.70;1.45;;;31.50;51.00;;;;;;5046305;28;20061;-65
2022/08/11 16:08:42;;;;;;;4.38;1.33;;;31.50;50.70;;;;;;5048121;28;20130;-65
2022/08/11 16:11:08;;;;;;;3.03;1.20;;;31.50;50.80;;;;;;5048688;28;20084;-65
2022/08/11 16:16:13;;;;;;;4.13;1.58;;;31.50;49.50;;;;;;5048141;28;20059;-65
2022/08/11 16:18:55;;;;;;;2.45;1.10;;;31.50;49.60;;;;;;5049112;28;20037;-65
2022/08/11 16:21:31;;;;;;;3.75;1.50;;;31.50;50.00;;;;;;5045209;28;20136;-65
2022/08/11 16:23:59;;;;;;;2.75;1.45;;;31.50;50.60;;;;;;5036186;28;20111;-65
2022/08/11 16:26:25;;;;;;;2.17;1.30;;;31.40;51.00;;;;;;5046520;28;20067;-65
2022/08/11 16:28:54;;;;;;;4.75;1.55;;;31.30;50.70;;;;;;5047957;28;20182;-65
2022/08/11 16:31:22;;;;;;;3.00;1.30;;;31.20;50.90;;;;;;5048770;28;20080;-65
2022/08/11 16:33:50;;;;;;;3.95;1.20;;;31.20;50.90;;;;;;5045670;28;20679;-65
2022/08/11 16:39:03;;;;;;;3.28;1.70;;;31.10;51.20;;;;;;5032176;28;20057;-65
2022/08/11 16:47:04;;;;;;;4.63;1.42;;;31.10;51.50;;;;;;5048320;28;20157;-65
2022/08/11 16:49:36;;;;;;;3.15;1.33;;;31.10;51.30;;;;;;5044425;28;20471;-64
2022/08/11 16:52:06;;;;;;;3.00;1.20;;;31.10;51.80;;;;;;5044789;28;20046;-65
2022/08/11 16:54:33;;;;;;;3.65;1.40;;;31.10;51.60;;;;;;5039309;28;20132;-65
2022/08/11 16:59:52;;;;;;;2.78;1.20;;;31.10;51.60;;;;;;5033279;28;20480;-65
2022/08/11 17:13:50;;;;;;;2.45;1.30;;;31.00;51.60;;;;;;5048517;28;20195;-62
2022/08/11 17:16:23;;;;;;;3.50;1.33;;;31.00;51.70;;;;;;5040768;28;20404;-63
2022/08/11 17:19:08;;;;;;;3.10;1.50;;;31.00;51.90;;;;;;5045765;28;20120;-65
2022/08/11 17:24:33;;;;;;;4.45;1.45;;;30.90;52.10;;;;;;5026996;28;20057;-65
2022/08/11 17:27:00;;;;;;;4.00;1.27;;;30.70;51.70;;;;;;5045557;28;20049;-65
2022/08/11 17:29:41;;;;;;;3.80;1.27;;;30.60;51.80;;;;;;5048332;28;20368;-65
2022/08/11 17:37:44;;;;;;;6.20;1.40;;;30.30;53.50;;;;;;5035267;28;20092;-65
2022/08/11 17:40:14;;;;;;;6.57;1.73;;;30.00;54.30;;;;;;5050441;28;20037;-65
2022/08/11 17:48:24;;;;;;;3.88;1.25;;;29.60;56.30;;;;;;5051643;28;20056;-65
2022/08/11 17:51:05;;;;;;;3.78;1.52;;;29.50;57.10;;;;;;5046418;28;20392;-65
2022/08/11 18:03:28;;;;;;;4.35;1.50;;;28.80;58.80;;;;;;5051476;28;20387;-65
2022/08/11 18:04:49;;;;;;;5.88;1.70;;;28.60;59.00;;;;;;5049728;28;20053;-65
